createdAt,value
2023-04-25T00:00:30.725Z,6.38
2023-04-25T00:02:57.888Z,7.15
2023-04-25T00:05:25.122Z,7.38
2023-04-25T00:07:52.746Z,5.60
2023-04-25T00:10:21.236Z,7.57
2023-04-25T00:12:50.472Z,5.32
2023-04-25T00:15:17.378Z,7.15
2023-04-25T00:17:44.342Z,5.70
2023-04-25T00:20:12.132Z,5.03
2023-04-25T00:22:39.071Z,10.25
2023-04-25T00:25:07.283Z,7.75
2023-04-25T00:27:36.882Z,7.07
2023-04-25T00:30:04.447Z,5.20
2023-04-25T00:32:31.440Z,5.32
2023-04-25T00:34:59.115Z,4.47
2023-04-25T00:37:26.257Z,4.07
2023-04-25T00:39:54.739Z,10.93
2023-04-25T00:42:21.722Z,4.78
2023-04-25T00:44:49.098Z,4.18
2023-04-25T00:47:16.575Z,5.78
2023-04-25T00:49:43.458Z,4.57
2023-04-25T00:52:11.149Z,6.05
2023-04-25T00:54:38.135Z,5.03
2023-04-25T00:57:05.472Z,5.38
2023-04-25T00:59:32.510Z,4.85
2023-04-25T01:02:03.580Z,5.78
2023-04-25T01:04:32.977Z,3.85
2023-04-25T01:07:00.122Z,5.60
2023-04-25T01:09:27.242Z,3.53
2023-04-25T01:11:56.676Z,5.03
2023-04-25T01:14:23.601Z,4.38
2023-04-25T01:16:50.578Z,3.63
2023-04-25T01:19:19.277Z,3.00
2023-04-25T01:21:46.655Z,2.67
2023-04-25T01:24:16.197Z,3.88
2023-04-25T01:26:50.852Z,2.83
2023-04-25T01:29:21.333Z,4.18
2023-04-25T01:31:48.663Z,3.70
2023-04-25T01:34:15.616Z,3.67
2023-04-25T01:36:42.558Z,5.22
2023-04-25T01:39:09.510Z,3.95
2023-04-25T01:41:36.434Z,4.68
2023-04-25T01:44:04.088Z,5.80
2023-04-25T01:46:31.849Z,4.72
2023-04-25T01:48:58.819Z,3.83
2023-04-25T01:51:25.805Z,5.47
2023-04-25T01:53:55.745Z,4.72
2023-04-25T01:56:22.626Z,4.18
2023-04-25T01:58:49.964Z,3.45
2023-04-25T02:01:16.893Z,2.65
2023-04-25T02:03:45.045Z,3.13
2023-04-25T02:06:12.052Z,3.00
2023-04-25T02:08:41.063Z,4.47
2023-04-25T02:11:07.902Z,3.65
2023-04-25T02:13:34.779Z,4.80
2023-04-25T02:16:01.707Z,8.95
2023-04-25T02:18:28.716Z,2.78
2023-04-25T02:20:55.810Z,3.78
2023-04-25T02:23:22.742Z,4.47
2023-04-25T02:25:52.197Z,2.58
2023-04-25T02:28:19.079Z,4.13
2023-04-25T02:30:46.040Z,4.35
2023-04-25T02:33:12.963Z,2.90
2023-04-25T02:35:39.821Z,3.17
2023-04-25T02:38:06.705Z,1.92
2023-04-25T02:40:33.527Z,2.55
2023-04-25T02:43:00.368Z,2.22
2023-04-25T02:45:27.410Z,2.90
2023-04-25T02:47:54.292Z,2.40
2023-04-25T02:50:21.274Z,5.07
2023-04-25T02:52:48.150Z,4.20
2023-04-25T02:55:15.695Z,3.03
2023-04-25T02:57:42.542Z,1.92
2023-04-25T03:00:09.896Z,2.83
2023-04-25T03:02:36.918Z,5.97
2023-04-25T03:05:04.456Z,2.53
2023-04-25T03:07:31.364Z,2.25
2023-04-25T03:09:58.361Z,2.30
2023-04-25T03:12:27.332Z,1.90
2023-04-25T03:14:54.174Z,3.55
2023-04-25T03:17:21.078Z,1.95
2023-04-25T03:19:48.035Z,2.15
2023-04-25T03:22:14.954Z,4.40
2023-04-25T03:24:41.916Z,2.85
2023-04-25T03:27:08.844Z,1.85
2023-04-25T03:29:35.669Z,1.38
2023-04-25T03:32:02.578Z,1.42
2023-04-25T03:34:29.618Z,11.93
2023-04-25T03:36:56.661Z,1.30
2023-04-25T03:39:23.615Z,0.90
2023-04-25T03:41:50.518Z,2.58
2023-04-25T03:44:17.425Z,2.38
2023-04-25T03:46:44.339Z,1.73
2023-04-25T03:49:13.295Z,1.15
2023-04-25T03:51:40.362Z,4.63
2023-04-25T03:54:08.339Z,1.88
2023-04-25T03:56:35.172Z,0.85
2023-04-25T03:59:02.116Z,1.52
2023-04-25T04:01:30.735Z,1.17
2023-04-25T04:03:58.000Z,1.10
2023-04-25T04:06:25.465Z,2.75
2023-04-25T04:08:52.414Z,1.30
2023-04-25T04:11:19.294Z,1.13
2023-04-25T04:13:48.789Z,1.17
2023-04-25T04:16:16.117Z,3.65
2023-04-25T04:18:43.358Z,3.75
2023-04-25T04:21:10.615Z,2.65
2023-04-25T04:23:42.291Z,1.90
2023-04-25T04:26:09.670Z,2.10
2023-04-25T04:28:40.234Z,2.00
2023-04-25T04:31:08.708Z,1.02
2023-04-25T04:33:35.796Z,4.07
2023-04-25T04:36:03.779Z,2.45
2023-04-25T04:38:33.355Z,1.50
2023-04-25T04:41:00.468Z,2.63
2023-04-25T04:43:27.418Z,3.22
2023-04-25T04:45:57.937Z,2.25
2023-04-25T04:48:24.969Z,1.88
2023-04-25T04:50:51.865Z,1.92
2023-04-25T04:53:21.495Z,4.03
2023-04-25T04:55:48.410Z,1.48
2023-04-25T04:58:16.897Z,2.13
2023-04-25T05:00:51.053Z,1.90
2023-04-25T05:03:18.065Z,1.50
2023-04-25T05:05:45.863Z,9.45
2023-04-25T05:08:12.937Z,1.25
2023-04-25T05:10:39.812Z,2.22
2023-04-25T05:13:06.673Z,2.25
2023-04-25T05:15:33.554Z,6.20
2023-04-25T05:18:02.645Z,1.50
2023-04-25T05:20:29.675Z,2.72
2023-04-25T05:22:56.644Z,2.97
2023-04-25T05:25:23.710Z,3.42
2023-04-25T05:27:52.194Z,5.75
2023-04-25T05:30:19.097Z,2.45
2023-04-25T05:32:47.905Z,5.53
2023-04-25T05:35:14.886Z,4.20
2023-04-25T05:37:42.188Z,4.00
2023-04-25T05:40:09.972Z,4.00
2023-04-25T05:42:36.876Z,3.55
2023-04-25T05:45:04.097Z,4.63
2023-04-25T05:47:31.033Z,2.33
2023-04-25T05:49:57.940Z,4.45
2023-04-25T05:52:24.894Z,3.15
2023-04-25T05:54:51.823Z,2.30
2023-04-25T05:57:25.945Z,3.30
2023-04-25T05:59:53.734Z,3.05
2023-04-25T06:02:24.489Z,4.18
2023-04-25T06:04:52.400Z,3.97
2023-04-25T06:07:20.951Z,5.20
2023-04-25T06:09:48.167Z,2.70
2023-04-25T06:12:15.151Z,4.88
2023-04-25T06:14:42.207Z,5.25
2023-04-25T06:17:09.575Z,4.55
2023-04-25T06:19:39.516Z,3.33
2023-04-25T06:22:06.720Z,5.15
2023-04-25T06:24:33.648Z,10.82
2023-04-25T06:27:01.345Z,4.35
2023-04-25T06:29:28.414Z,4.35
2023-04-25T06:31:55.317Z,6.03
2023-04-25T06:34:22.220Z,4.05
2023-04-25T06:36:49.101Z,8.25
2023-04-25T06:39:16.006Z,3.55
2023-04-25T06:41:42.860Z,2.78
2023-04-25T06:44:09.820Z,4.18
2023-04-25T06:46:37.472Z,4.55
2023-04-25T06:49:04.447Z,2.80
2023-04-25T06:51:31.865Z,1.95
2023-04-25T06:53:59.056Z,2.95
2023-04-25T06:56:29.394Z,5.90
2023-04-25T06:58:56.305Z,4.82
2023-04-25T07:01:23.320Z,5.28
2023-04-25T07:03:50.485Z,4.35
2023-04-25T07:06:17.568Z,2.70
2023-04-25T07:08:44.545Z,3.70
2023-04-25T07:11:11.388Z,4.07
2023-04-25T07:13:38.350Z,11.10
2023-04-25T07:16:06.030Z,3.10
2023-04-25T07:18:33.012Z,4.72
2023-04-25T07:20:59.874Z,3.88
2023-04-25T07:23:29.248Z,4.05
2023-04-25T07:25:56.903Z,4.30
2023-04-25T07:28:23.897Z,3.97
2023-04-25T07:30:50.852Z,2.90
2023-04-25T07:33:18.173Z,3.17
2023-04-25T07:35:44.984Z,3.90
2023-04-25T07:38:11.912Z,4.53
2023-04-25T07:40:38.767Z,3.67
2023-04-25T07:43:05.674Z,3.53
2023-04-25T07:45:32.598Z,9.77
2023-04-25T07:47:59.579Z,3.22
2023-04-25T07:50:26.624Z,4.95
2023-04-25T07:52:53.570Z,4.25
2023-04-25T07:55:20.456Z,6.28
2023-04-25T07:57:47.338Z,6.95
2023-04-25T08:00:16.881Z,4.85
2023-04-25T08:02:43.822Z,5.47
2023-04-25T08:05:15.485Z,4.78
2023-04-25T08:07:42.893Z,5.03
2023-04-25T08:10:13.601Z,5.18
2023-04-25T08:12:40.788Z,4.43
2023-04-25T08:15:08.311Z,4.35
2023-04-25T08:17:37.493Z,3.75
2023-04-25T08:20:06.920Z,6.20
2023-04-25T08:22:34.986Z,6.50
2023-04-25T08:25:04.073Z,4.38
2023-04-25T08:27:31.240Z,5.68
2023-04-25T08:29:59.488Z,5.70
2023-04-25T08:32:28.092Z,5.13
2023-04-25T08:34:56.625Z,4.05
2023-04-25T08:37:23.569Z,5.50
2023-04-25T08:39:54.390Z,3.67
2023-04-25T08:42:23.006Z,4.70
2023-04-25T08:44:51.068Z,5.55
2023-04-25T08:47:22.280Z,4.40
2023-04-25T08:49:50.172Z,6.32
2023-04-25T08:52:20.635Z,3.42
2023-04-25T08:54:49.957Z,3.92
2023-04-25T08:57:16.922Z,6.45
2023-04-25T08:59:46.993Z,5.18
2023-04-25T09:02:22.007Z,6.28
2023-04-25T09:04:49.302Z,3.78
2023-04-25T09:07:19.648Z,9.52
2023-04-25T09:09:46.620Z,5.53
2023-04-25T09:12:13.613Z,3.65
2023-04-25T09:14:40.544Z,3.53
2023-04-25T09:17:08.949Z,6.60
2023-04-25T09:19:40.918Z,3.67
2023-04-25T09:22:09.338Z,4.30
2023-04-25T09:24:44.457Z,2.92
2023-04-25T09:27:19.221Z,5.75
2023-04-25T09:29:46.144Z,5.43
2023-04-25T09:32:19.187Z,4.20
2023-04-25T09:34:51.647Z,4.30
2023-04-25T09:37:19.708Z,3.28
2023-04-25T09:39:49.936Z,4.65
2023-04-25T09:42:17.936Z,4.22
2023-04-25T09:44:46.315Z,3.47
2023-04-25T09:47:14.769Z,2.45
2023-04-25T09:49:43.381Z,4.53
2023-04-25T09:52:16.916Z,2.55
2023-04-25T09:54:44.018Z,3.00
2023-04-25T09:57:22.137Z,7.07
2023-04-25T09:59:56.476Z,4.20
2023-04-25T10:02:25.241Z,3.05
2023-04-25T10:04:56.955Z,3.65
2023-04-25T10:10:05.183Z,3.05
2023-04-25T10:12:33.760Z,2.75
2023-04-25T10:15:01.611Z,5.15
2023-04-25T10:17:31.135Z,4.55
2023-04-25T10:19:58.938Z,12.02
2023-04-25T10:22:44.005Z,4.72
2023-04-25T10:25:12.248Z,3.72
2023-04-25T10:27:40.638Z,3.13
2023-04-25T10:30:13.762Z,3.85
2023-04-25T10:32:40.807Z,5.07
2023-04-25T10:35:16.469Z,3.45
2023-04-25T10:38:05.822Z,3.42
2023-04-25T10:40:35.547Z,4.32
2023-04-25T10:43:39.802Z,5.70
2023-04-25T10:46:30.400Z,6.75
2023-04-25T10:49:01.986Z,7.43
2023-04-25T10:51:47.343Z,3.45
2023-04-25T10:54:21.151Z,6.70
2023-04-25T10:56:50.185Z,3.88
2023-04-25T10:59:20.721Z,5.15
2023-04-25T11:01:49.125Z,5.55
2023-04-25T11:04:24.522Z,3.88
2023-04-25T11:07:06.991Z,5.10
2023-04-25T11:09:35.956Z,4.35
2023-04-25T11:12:03.149Z,3.20
2023-04-25T11:14:30.255Z,2.78
2023-04-25T11:17:00.357Z,5.82
2023-04-25T11:19:28.896Z,5.05
2023-04-25T11:22:00.966Z,4.40
2023-04-25T11:24:35.406Z,6.80
2023-04-25T11:27:03.889Z,3.25
2023-04-25T11:29:32.527Z,7.10
2023-04-25T11:31:59.965Z,4.03
2023-04-25T11:34:31.870Z,4.13
2023-04-25T11:36:59.737Z,5.00
2023-04-25T11:39:27.667Z,5.28
2023-04-25T11:41:55.139Z,4.88
2023-04-25T11:44:22.760Z,2.65
2023-04-25T11:46:49.939Z,4.85
2023-04-25T11:49:19.498Z,2.83
2023-04-25T11:51:48.636Z,5.30
2023-04-25T11:54:16.569Z,3.47
2023-04-25T11:56:47.552Z,5.80
2023-04-25T11:59:14.783Z,2.90
2023-04-25T12:01:43.118Z,5.95
2023-04-25T12:04:15.094Z,5.50
2023-04-25T12:09:19.997Z,2.55
2023-04-25T12:12:06.981Z,4.90
2023-04-25T12:14:36.101Z,3.72
2023-04-25T12:17:09.272Z,4.10
2023-04-25T12:19:38.086Z,3.42
2023-04-25T12:22:22.622Z,6.78
2023-04-25T12:24:49.522Z,3.00
2023-04-25T12:27:17.786Z,3.20
2023-04-25T12:29:55.765Z,7.70
2023-04-25T12:32:23.090Z,3.00
2023-04-25T12:34:50.170Z,2.88
2023-04-25T12:37:17.224Z,7.28
2023-04-25T12:39:44.364Z,2.53
2023-04-25T12:42:14.013Z,3.97
2023-04-25T12:44:41.484Z,3.45
2023-04-25T12:47:08.599Z,4.82
2023-04-25T12:49:35.972Z,3.33
2023-04-25T12:52:02.893Z,3.88
2023-04-25T12:54:29.829Z,8.82
2023-04-25T12:56:56.786Z,2.80
2023-04-25T12:59:24.168Z,3.83
2023-04-25T13:01:51.135Z,5.63
2023-04-25T13:04:18.794Z,4.07
2023-04-25T13:06:45.975Z,2.40
2023-04-25T13:12:00.138Z,3.38
2023-04-25T13:14:27.189Z,3.55
2023-04-25T13:16:56.455Z,5.53
2023-04-25T13:19:23.404Z,3.83
2023-04-25T13:21:51.043Z,4.38
2023-04-25T13:24:18.047Z,11.05
2023-04-25T13:26:45.196Z,4.50
2023-04-25T13:29:15.081Z,6.95
2023-04-25T13:31:44.646Z,9.40
2023-04-25T13:34:13.541Z,5.60
2023-04-25T13:36:40.583Z,5.07
2023-04-25T13:39:07.501Z,6.20
2023-04-25T13:41:34.374Z,5.00
2023-04-25T13:44:01.904Z,3.35
2023-04-25T13:46:44.618Z,4.03
2023-04-25T13:49:13.795Z,5.97
2023-04-25T13:51:41.399Z,4.78
2023-04-25T13:54:08.730Z,4.95
2023-04-25T13:56:37.980Z,6.07
2023-04-25T13:59:04.868Z,5.35
2023-04-25T14:01:35.310Z,6.47
2023-04-25T14:04:04.880Z,4.63
2023-04-25T14:06:33.120Z,4.70
2023-04-25T14:09:02.161Z,3.88
2023-04-25T14:11:29.143Z,5.28
2023-04-25T14:13:56.036Z,4.18
2023-04-25T14:16:24.134Z,4.07
2023-04-25T14:18:51.336Z,4.25
2023-04-25T14:21:18.207Z,3.05
2023-04-25T14:23:45.451Z,3.78
2023-04-25T14:26:13.684Z,1.45
2023-04-25T14:28:40.696Z,3.67
2023-04-25T14:31:07.932Z,2.88
2023-04-25T14:33:35.143Z,2.67
2023-04-25T14:36:02.013Z,2.08
2023-04-25T14:38:28.916Z,3.97
2023-04-25T14:40:55.873Z,1.48
2023-04-25T14:43:22.800Z,2.72
2023-04-25T14:45:49.766Z,1.90
2023-04-25T14:48:19.179Z,3.58
2023-04-25T14:50:46.828Z,2.28
2023-04-25T14:53:13.907Z,3.15
2023-04-25T14:55:41.490Z,3.33
2023-04-25T14:58:08.372Z,5.40
2023-04-25T15:00:35.531Z,6.65
2023-04-25T15:03:02.783Z,4.30
2023-04-25T15:05:29.879Z,2.63
2023-04-25T15:07:56.841Z,3.75
2023-04-25T15:10:23.719Z,3.00
2023-04-25T15:12:51.474Z,1.85
2023-04-25T15:15:25.841Z,3.22
2023-04-25T15:17:56.481Z,4.25
2023-04-25T15:20:25.573Z,4.00
2023-04-25T15:22:52.522Z,3.83
2023-04-25T15:25:19.476Z,5.97
2023-04-25T15:27:49.184Z,4.35
2023-04-25T15:30:17.641Z,5.20
2023-04-25T15:32:48.575Z,5.07
2023-04-25T15:35:16.325Z,5.35
2023-04-25T15:37:43.489Z,5.57
2023-04-25T15:40:13.780Z,4.07
2023-04-25T15:42:51.996Z,5.85
2023-04-25T15:45:26.202Z,10.32
2023-04-25T15:47:55.312Z,7.00
2023-04-25T15:50:22.556Z,6.53
2023-04-25T15:52:50.626Z,4.43
2023-04-25T15:55:18.538Z,5.07
2023-04-25T15:57:45.593Z,4.93
2023-04-25T16:00:17.509Z,4.15
2023-04-25T16:02:45.783Z,5.00
2023-04-25T16:05:14.598Z,5.78
2023-04-25T16:07:43.177Z,6.10
2023-04-25T16:10:11.491Z,5.15
2023-04-25T16:12:39.638Z,8.68
2023-04-25T16:15:07.020Z,7.85
2023-04-25T16:17:34.092Z,10.25
2023-04-25T16:20:10.147Z,5.10
2023-04-25T16:22:39.284Z,8.02
2023-04-25T16:25:07.057Z,6.68
2023-04-25T16:27:37.989Z,10.27
2023-04-25T16:30:06.355Z,9.35
2023-04-25T16:32:33.433Z,11.05
2023-04-25T16:35:00.320Z,10.30
2023-04-25T16:37:27.270Z,9.15
2023-04-25T16:39:54.257Z,13.23
2023-04-25T16:42:21.166Z,10.13
2023-04-25T16:44:48.033Z,9.40
2023-04-25T16:47:18.695Z,7.32
2023-04-25T16:49:47.151Z,10.50
2023-04-25T16:52:15.169Z,7.97
2023-04-25T16:54:42.135Z,15.85
2023-04-25T16:57:11.310Z,12.45
2023-04-25T16:59:39.284Z,10.27
2023-04-25T17:02:08.845Z,9.02
2023-04-25T17:04:35.944Z,11.95
2023-04-25T17:07:03.036Z,12.15
2023-04-25T17:09:30.179Z,10.55
2023-04-25T17:11:57.112Z,9.75
2023-04-25T17:14:24.055Z,9.95
2023-04-25T17:16:51.154Z,10.85
2023-04-25T17:19:21.574Z,10.32
2023-04-25T17:21:48.510Z,9.70
2023-04-25T17:24:16.015Z,12.40
2023-04-25T17:26:42.908Z,12.32
2023-04-25T17:29:09.756Z,11.55
2023-04-25T17:31:37.381Z,13.40
2023-04-25T17:34:05.169Z,15.07
2023-04-25T17:36:32.800Z,15.63
2023-04-25T17:38:59.765Z,12.27
2023-04-25T17:41:26.861Z,12.57
2023-04-25T17:43:53.733Z,12.45
2023-04-25T17:46:23.019Z,13.98
2023-04-25T17:48:50.482Z,10.98
2023-04-25T17:51:17.604Z,12.55
2023-04-25T17:53:44.555Z,13.43
2023-04-25T17:56:25.311Z,13.48
2023-04-25T17:58:55.052Z,12.00
2023-04-25T18:01:22.590Z,12.85
2023-04-25T18:03:50.416Z,13.13
2023-04-25T18:06:18.433Z,13.38
2023-04-25T18:08:46.252Z,15.75
2023-04-25T18:11:13.277Z,17.42
2023-04-25T18:13:40.827Z,15.10
2023-04-25T18:16:08.027Z,14.98
2023-04-25T18:18:36.334Z,10.23
2023-04-25T18:21:05.383Z,10.65
2023-04-25T18:23:35.991Z,10.23
2023-04-25T18:26:04.268Z,9.95
2023-04-25T18:28:31.454Z,17.00
2023-04-25T18:30:58.852Z,9.85
2023-04-25T18:33:27.912Z,10.65
2023-04-25T18:35:59.129Z,10.45
2023-04-25T18:41:13.029Z,11.45
2023-04-25T18:43:46.828Z,15.38
2023-04-25T18:46:13.822Z,14.60
2023-04-25T18:48:40.793Z,13.30
2023-04-25T18:51:07.835Z,16.13
2023-04-25T18:53:35.102Z,13.05
2023-04-25T18:56:04.800Z,14.27
2023-04-25T18:58:32.563Z,9.75
2023-04-25T19:01:00.168Z,11.52
2023-04-25T19:03:28.478Z,13.48
2023-04-25T19:05:55.913Z,18.98
2023-04-25T19:10:53.569Z,14.77
2023-04-25T19:13:21.357Z,12.90
2023-04-25T19:15:48.489Z,17.63
2023-04-25T19:18:15.500Z,13.48
2023-04-25T19:20:42.546Z,18.55
2023-04-25T19:23:10.580Z,12.55
2023-04-25T19:25:37.456Z,10.70
2023-04-25T19:28:04.429Z,11.23
2023-04-25T19:30:31.776Z,17.40
2023-04-25T19:32:59.028Z,15.38
2023-04-25T19:35:30.866Z,16.77
2023-04-25T19:37:57.793Z,23.10
2023-04-25T19:40:25.198Z,24.63
2023-04-25T19:42:54.934Z,13.20
2023-04-25T19:45:22.090Z,14.95
2023-04-25T19:47:49.241Z,12.10
2023-04-25T19:50:16.332Z,13.95
2023-04-25T19:52:43.286Z,13.38
2023-04-25T19:55:12.959Z,15.07
2023-04-25T19:57:39.759Z,15.85
2023-04-25T20:00:08.997Z,15.32
2023-04-25T20:02:36.911Z,15.30
2023-04-25T20:05:05.666Z,13.85
2023-04-25T20:07:32.811Z,13.45
2023-04-25T20:10:01.711Z,16.40
2023-04-25T20:12:33.329Z,14.20
2023-04-25T20:15:00.936Z,14.95
2023-04-25T20:17:27.960Z,11.80
2023-04-25T20:19:54.779Z,13.13
2023-04-25T20:22:21.717Z,18.58
2023-04-25T20:24:48.619Z,17.02
2023-04-25T20:27:15.500Z,16.52
2023-04-25T20:29:42.732Z,20.45
2023-04-25T20:32:12.322Z,23.02
2023-04-25T20:34:42.201Z,19.50
2023-04-25T20:37:09.196Z,26.48
2023-04-25T20:39:36.170Z,27.80
2023-04-25T20:42:03.133Z,30.60
2023-04-25T20:44:30.547Z,32.75
2023-04-25T20:46:57.440Z,30.45
2023-04-25T20:49:24.328Z,27.65
2023-04-25T20:51:51.138Z,37.35
2023-04-25T20:54:18.097Z,39.75
2023-04-25T20:56:45.403Z,36.15
2023-04-25T20:59:13.207Z,32.70
2023-04-25T21:01:40.394Z,43.22
2023-04-25T21:04:07.550Z,42.30
2023-04-25T21:06:34.940Z,36.78
2023-04-25T21:09:01.819Z,44.92
2023-04-25T21:11:28.712Z,48.88
2023-04-25T21:13:55.574Z,41.72
2023-04-25T21:16:22.481Z,40.42
2023-04-25T21:18:49.477Z,33.40
2023-04-25T21:21:19.843Z,38.45
2023-04-25T21:23:49.331Z,34.30
2023-04-25T21:26:18.324Z,40.10
2023-04-25T21:28:46.912Z,34.22
2023-04-25T21:31:14.329Z,38.85
2023-04-25T21:33:41.807Z,34.28
2023-04-25T21:36:08.910Z,33.50
2023-04-25T21:38:35.813Z,33.53
2023-04-25T21:41:02.630Z,32.90
2023-04-25T21:43:29.575Z,35.95
2023-04-25T21:46:14.848Z,42.33
2023-04-25T21:48:43.285Z,40.47
2023-04-25T21:51:10.173Z,34.30
2023-04-25T21:53:37.036Z,32.60
2023-04-25T21:56:04.295Z,32.97
2023-04-25T21:58:31.208Z,32.90
2023-04-25T22:00:59.564Z,33.17
2023-04-25T22:03:26.627Z,33.95
2023-04-25T22:05:53.569Z,30.75
2023-04-25T22:08:20.791Z,30.05
2023-04-25T22:10:47.952Z,41.83
2023-04-25T22:13:15.364Z,42.95
2023-04-25T22:15:42.288Z,44.95
2023-04-25T22:18:09.433Z,37.28
2023-04-25T22:20:37.160Z,43.40
2023-04-25T22:23:04.254Z,49.35
2023-04-25T22:25:31.890Z,46.80
2023-04-25T22:27:59.105Z,45.53
2023-04-25T22:30:26.035Z,41.58
2023-04-25T22:32:55.165Z,37.08
2023-04-25T22:35:22.071Z,37.72
2023-04-25T22:37:49.251Z,37.78
2023-04-25T22:40:16.155Z,38.65
2023-04-25T22:42:44.283Z,29.63
2023-04-25T22:45:11.704Z,26.83
2023-04-25T22:47:39.656Z,27.35
2023-04-25T22:50:13.911Z,25.08
2023-04-25T22:52:42.439Z,23.15
2023-04-25T22:55:11.045Z,29.20
2023-04-25T22:57:38.867Z,26.50
2023-04-25T23:00:15.736Z,27.17
2023-04-25T23:02:45.825Z,24.73
2023-04-25T23:05:13.718Z,25.50
2023-04-25T23:07:41.126Z,23.20
2023-04-25T23:10:08.838Z,19.05
2023-04-25T23:12:36.170Z,21.60
2023-04-25T23:15:05.150Z,22.73
2023-04-25T23:17:32.504Z,22.67
2023-04-25T23:19:59.709Z,19.02
2023-04-25T23:22:26.770Z,17.05
2023-04-25T23:24:53.662Z,16.52
2023-04-25T23:27:20.977Z,16.33
2023-04-25T23:29:56.192Z,17.92
2023-04-25T23:32:23.406Z,19.27
2023-04-25T23:34:50.376Z,20.38
2023-04-25T23:37:17.331Z,15.63
2023-04-25T23:39:50.882Z,19.88
2023-04-25T23:42:20.784Z,17.05
2023-04-25T23:44:47.765Z,13.73
2023-04-25T23:47:17.595Z,13.95
2023-04-25T23:49:47.534Z,11.52
2023-04-25T23:52:14.384Z,14.73
2023-04-25T23:54:42.435Z,21.02
2023-04-25T23:57:09.410Z,21.70
2023-04-25T23:59:36.357Z,23.10
